createdAt,value
2022-12-16T00:00:06.477Z,100110.09
2022-12-16T00:02:33.273Z,100110.59
2022-12-16T00:04:59.905Z,100105.06
2022-12-16T00:07:26.656Z,100108.25
2022-12-16T00:09:53.145Z,100113.03
2022-12-16T00:12:19.710Z,100114.88
2022-12-16T00:14:46.178Z,100117.91
2022-12-16T00:17:12.721Z,100107.50
2022-12-16T00:19:39.286Z,100108.88
2022-12-16T00:22:05.821Z,100105.19
2022-12-16T00:24:32.460Z,100096.84
2022-12-16T00:26:59.006Z,100109.09
2022-12-16T00:29:25.563Z,100112.75
2022-12-16T00:31:52.177Z,100117.91
2022-12-16T00:34:19.297Z,100110.69
2022-12-16T00:36:45.850Z,100119.72
2022-12-16T00:39:12.498Z,100116.44
2022-12-16T00:41:39.150Z,100115.84
2022-12-16T00:44:05.766Z,100112.06
2022-12-16T00:46:32.447Z,100117.69
2022-12-16T00:48:59.093Z,100122.94
2022-12-16T00:51:26.004Z,100119.84
2022-12-16T00:53:52.538Z,100126.72
2022-12-16T00:56:19.338Z,100121.09
2022-12-16T00:58:46.199Z,100122.72
2022-12-16T01:01:13.158Z,100120.50
2022-12-16T01:03:40.488Z,100123.31
2022-12-16T01:06:12.987Z,100125.25
2022-12-16T01:08:39.911Z,100125.50
2022-12-16T01:11:06.744Z,100124.63
2022-12-16T01:13:34.072Z,100133.34
2022-12-16T01:16:01.729Z,100137.38
2022-12-16T01:18:28.553Z,100135.88
2022-12-16T01:21:02.725Z,100134.31
2022-12-16T01:23:29.441Z,100141.44
2022-12-16T01:25:59.017Z,100144.59
2022-12-16T01:28:26.754Z,100142.50
2022-12-16T01:31:01.337Z,100144.63
2022-12-16T01:33:30.581Z,100150.44
2022-12-16T01:36:03.036Z,100150.44
2022-12-16T01:38:29.977Z,100150.84
2022-12-16T01:40:57.312Z,100143.78
2022-12-16T01:43:27.379Z,100137.50
2022-12-16T01:46:00.297Z,100157.28
2022-12-16T01:48:40.956Z,100161.97
2022-12-16T01:51:35.578Z,100155.59
2022-12-16T01:54:34.545Z,100157.22
2022-12-16T01:57:06.625Z,100155.88
2022-12-16T01:59:36.627Z,100164.31
2022-12-16T02:02:04.808Z,100162.50
2022-12-16T02:04:31.464Z,100162.38
2022-12-16T02:06:58.685Z,100163.22
2022-12-16T02:09:25.467Z,100156.13
2022-12-16T02:12:19.840Z,100155.94
2022-12-16T02:15:10.500Z,100164.97
2022-12-16T02:17:49.034Z,100167.59
2022-12-16T02:20:26.162Z,100174.13
2022-12-16T02:23:16.825Z,100171.31
2022-12-16T02:26:08.149Z,100168.38
2022-12-16T02:28:47.334Z,100163.94
2022-12-16T02:31:27.434Z,100166.16
2022-12-16T02:33:58.890Z,100170.19
2022-12-16T02:36:47.164Z,100165.19
2022-12-16T02:39:22.991Z,100169.09
2022-12-16T02:41:49.475Z,100170.19
2022-12-16T02:44:17.326Z,100168.06
2022-12-16T02:46:53.810Z,100156.84
2022-12-16T02:49:22.069Z,100162.34
2022-12-16T02:51:49.569Z,100167.06
2022-12-16T02:54:17.667Z,100168.22
2022-12-16T02:56:58.694Z,100168.84
2022-12-16T02:59:53.246Z,100164.91
2022-12-16T03:02:30.022Z,100168.59
2022-12-16T03:05:06.334Z,100172.47
2022-12-16T03:07:36.554Z,100179.78
2022-12-16T03:10:08.629Z,100181.72
2022-12-16T03:12:40.252Z,100174.19
2022-12-16T03:15:08.037Z,100182.16
2022-12-16T03:17:37.006Z,100175.84
2022-12-16T03:20:20.874Z,100181.91
2022-12-16T03:22:50.760Z,100178.06
2022-12-16T03:25:20.174Z,100172.25
2022-12-16T03:28:05.005Z,100180.00
2022-12-16T03:30:44.707Z,100177.25
2022-12-16T03:33:30.006Z,100180.56
2022-12-16T03:36:06.978Z,100187.41
2022-12-16T03:38:36.365Z,100191.09
2022-12-16T03:41:04.110Z,100198.09
2022-12-16T03:43:31.580Z,100197.25
2022-12-16T03:46:04.180Z,100195.88
2022-12-16T03:48:31.017Z,100197.16
2022-12-16T03:50:57.595Z,100201.25
2022-12-16T03:53:26.326Z,100204.16
2022-12-16T03:55:54.596Z,100201.25
2022-12-16T03:58:21.670Z,100200.06
2022-12-16T04:00:48.227Z,100203.56
2022-12-16T04:03:15.169Z,100199.03
2022-12-16T04:05:41.933Z,100198.00
2022-12-16T04:08:08.538Z,100196.97
2022-12-16T04:10:53.456Z,100197.28
2022-12-16T04:13:38.770Z,100193.97
2022-12-16T04:16:24.252Z,100193.34
2022-12-16T04:19:09.646Z,100197.91
2022-12-16T04:21:55.599Z,100198.56
2022-12-16T04:24:29.325Z,100205.66
2022-12-16T04:27:28.350Z,100213.00
2022-12-16T04:30:13.689Z,100219.28
2022-12-16T04:32:59.180Z,100227.53
2022-12-16T04:35:44.208Z,100233.91
2022-12-16T04:38:29.431Z,100227.00
2022-12-16T04:41:14.547Z,100241.69
2022-12-16T04:44:00.024Z,100241.47
2022-12-16T04:46:45.648Z,100249.03
2022-12-16T04:49:30.912Z,100248.81
2022-12-16T04:52:16.390Z,100254.03
2022-12-16T04:55:01.655Z,100262.34
2022-12-16T04:57:46.942Z,100265.50
2022-12-16T05:00:32.151Z,100262.03
2022-12-16T05:03:17.518Z,100252.63
2022-12-16T05:06:02.914Z,100262.78
2022-12-16T05:08:48.147Z,100252.09
2022-12-16T05:11:33.560Z,100257.38
2022-12-16T05:14:18.806Z,100261.06
2022-12-16T05:17:04.177Z,100264.38
2022-12-16T05:19:49.240Z,100259.56
2022-12-16T05:22:34.495Z,100259.97
2022-12-16T05:25:19.954Z,100270.03
2022-12-16T05:28:08.651Z,100269.41
2022-12-16T05:30:54.204Z,100275.88
2022-12-16T05:33:41.493Z,100274.38
2022-12-16T05:36:26.678Z,100289.38
2022-12-16T05:39:12.469Z,100280.09
2022-12-16T05:41:58.289Z,100293.81
2022-12-16T05:44:43.489Z,100294.75
2022-12-16T05:47:28.835Z,100302.22
2022-12-16T05:50:14.110Z,100301.09
2022-12-16T05:53:13.546Z,100302.59
2022-12-16T05:55:58.970Z,100310.25
2022-12-16T05:58:44.885Z,100311.97
2022-12-16T06:01:30.319Z,100311.72
2022-12-16T06:04:17.720Z,100315.47
2022-12-16T06:07:03.492Z,100330.66
2022-12-16T06:09:53.105Z,100331.00
2022-12-16T06:12:41.396Z,100334.78
2022-12-16T06:15:27.244Z,100333.25
2022-12-16T06:18:12.637Z,100335.31
2022-12-16T06:20:57.921Z,100345.66
2022-12-16T06:23:43.197Z,100337.28
2022-12-16T06:26:28.350Z,100348.47
2022-12-16T06:29:13.709Z,100344.81
2022-12-16T06:31:59.127Z,100337.25
2022-12-16T06:34:44.500Z,100343.34
2022-12-16T06:37:29.623Z,100342.84
2022-12-16T06:40:14.720Z,100347.03
2022-12-16T06:43:00.423Z,100350.47
2022-12-16T06:45:45.669Z,100356.75
2022-12-16T06:48:31.304Z,100359.09
2022-12-16T06:51:16.569Z,100363.69
2022-12-16T06:54:01.655Z,100376.63
2022-12-16T06:56:46.828Z,100377.06
2022-12-16T06:59:31.936Z,100374.94
2022-12-16T07:02:17.239Z,100384.94
2022-12-16T07:05:02.580Z,100384.63
2022-12-16T07:07:47.716Z,100383.53
2022-12-16T07:10:33.000Z,100384.69
2022-12-16T07:13:19.038Z,100394.47
2022-12-16T07:16:04.828Z,100395.56
2022-12-16T07:18:50.147Z,100392.56
2022-12-16T07:21:35.293Z,100401.78
2022-12-16T07:24:20.545Z,100415.50
2022-12-16T07:27:05.759Z,100414.63
2022-12-16T07:29:51.058Z,100415.25
2022-12-16T07:32:36.481Z,100421.03
2022-12-16T07:35:22.019Z,100419.06
2022-12-16T07:38:07.383Z,100426.63
2022-12-16T07:40:52.593Z,100433.56
2022-12-16T07:43:38.021Z,100446.06
2022-12-16T07:46:23.244Z,100442.53
2022-12-16T07:49:08.493Z,100446.06
2022-12-16T07:51:53.618Z,100452.78
2022-12-16T07:54:41.067Z,100461.69
2022-12-16T07:57:26.482Z,100457.22
2022-12-16T08:00:11.724Z,100468.66
2022-12-16T08:02:59.709Z,100471.28
2022-12-16T08:05:44.827Z,100477.44
2022-12-16T08:08:30.066Z,100484.38
2022-12-16T08:11:15.405Z,100488.63
2022-12-16T08:14:00.645Z,100490.28
2022-12-16T08:16:45.985Z,100492.34
2022-12-16T08:19:31.094Z,100494.88
2022-12-16T08:22:16.337Z,100499.97
2022-12-16T08:25:01.894Z,100495.44
2022-12-16T08:27:47.120Z,100498.78
2022-12-16T08:30:32.508Z,100505.91
2022-12-16T08:36:23.238Z,100507.16
2022-12-16T08:39:08.505Z,100506.06
2022-12-16T08:41:53.801Z,100520.44
2022-12-16T08:44:39.205Z,100517.53
2022-12-16T08:47:24.790Z,100534.94
2022-12-16T08:50:09.981Z,100534.38
2022-12-16T08:52:55.377Z,100530.56
2022-12-16T08:55:40.618Z,100538.06
2022-12-16T08:58:26.008Z,100537.13
2022-12-16T09:01:11.394Z,100534.91
2022-12-16T09:03:56.871Z,100543.63
2022-12-16T09:06:42.168Z,100544.59
2022-12-16T09:09:28.414Z,100544.97
2022-12-16T09:12:13.786Z,100555.91
2022-12-16T09:14:59.140Z,100556.03
2022-12-16T09:17:44.409Z,100556.75
2022-12-16T09:20:29.608Z,100557.63
2022-12-16T09:23:14.996Z,100562.66
2022-12-16T09:26:00.484Z,100571.25
2022-12-16T09:28:45.748Z,100573.44
2022-12-16T09:31:30.939Z,100579.75
2022-12-16T09:34:30.025Z,100584.13
2022-12-16T09:37:15.683Z,100580.22
2022-12-16T09:40:01.210Z,100578.59
2022-12-16T09:43:21.222Z,100581.91
2022-12-16T09:46:24.639Z,100586.22
2022-12-16T09:49:35.278Z,100587.72
2022-12-16T09:52:22.560Z,100596.41
2022-12-16T09:55:08.075Z,100597.00
2022-12-16T09:57:55.513Z,100610.72
2022-12-16T10:00:43.810Z,100604.53
2022-12-16T10:03:41.598Z,100593.75
2022-12-16T10:07:13.077Z,100601.59
2022-12-16T10:10:36.413Z,100616.84
2022-12-16T10:13:46.625Z,100621.97
2022-12-16T10:16:54.883Z,100627.13
2022-12-16T10:19:54.022Z,100628.81
2022-12-16T10:23:00.475Z,100622.75
2022-12-16T10:25:54.870Z,100626.09
2022-12-16T10:28:59.150Z,100623.88
2022-12-16T10:31:44.336Z,100617.06
2022-12-16T10:34:39.814Z,100635.75
2022-12-16T10:37:25.018Z,100637.22
2022-12-16T10:40:16.733Z,100630.66
2022-12-16T10:43:25.894Z,100643.84
2022-12-16T10:46:15.196Z,100641.91
2022-12-16T10:49:01.102Z,100636.56
2022-12-16T10:51:47.913Z,100642.81
2022-12-16T10:55:02.562Z,100644.50
2022-12-16T10:57:52.925Z,100640.25
2022-12-16T11:00:56.096Z,100643.56
2022-12-16T11:03:44.758Z,100636.59
2022-12-16T11:06:35.165Z,100635.63
2022-12-16T11:09:46.066Z,100633.59
2022-12-16T11:12:47.855Z,100630.22
2022-12-16T11:15:53.652Z,100635.91
2022-12-16T11:18:41.443Z,100632.50
2022-12-16T11:21:37.053Z,100632.06
2022-12-16T11:24:34.569Z,100632.53
2022-12-16T11:27:41.490Z,100629.03
2022-12-16T11:30:37.464Z,100629.88
2022-12-16T11:33:52.588Z,100628.25
2022-12-16T11:36:43.080Z,100631.00
2022-12-16T11:39:37.994Z,100635.03
2022-12-16T11:42:24.939Z,100643.28
2022-12-16T11:45:17.155Z,100648.03
2022-12-16T11:48:12.521Z,100638.97
2022-12-16T11:51:06.814Z,100638.78
2022-12-16T11:54:03.121Z,100638.06
2022-12-16T11:56:56.667Z,100638.53
2022-12-16T11:59:55.133Z,100639.72
2022-12-16T12:03:14.950Z,100649.13
2022-12-16T12:06:15.249Z,100643.66
2022-12-16T12:09:33.728Z,100649.72
2022-12-16T12:12:34.497Z,100645.56
2022-12-16T12:15:35.092Z,100643.00
2022-12-16T12:18:24.920Z,100649.75
2022-12-16T12:21:49.133Z,100642.34
2022-12-16T12:25:18.535Z,100644.97
2022-12-16T12:28:03.733Z,100658.97
2022-12-16T12:30:51.688Z,100661.16
2022-12-16T12:33:49.216Z,100657.69
2022-12-16T12:36:48.033Z,100659.84
2022-12-16T12:39:54.394Z,100659.00
2022-12-16T12:42:57.887Z,100664.44
2022-12-16T12:46:11.743Z,100666.41
2022-12-16T12:49:34.525Z,100664.13
2022-12-16T12:52:38.076Z,100665.84
2022-12-16T12:55:34.990Z,100668.47
2022-12-16T12:58:25.510Z,100656.00
2022-12-16T13:01:16.435Z,100665.56
2022-12-16T13:04:07.226Z,100672.47
2022-12-16T13:06:55.398Z,100666.63
2022-12-16T13:09:57.157Z,100673.19
2022-12-16T13:12:48.315Z,100677.03
2022-12-16T13:15:51.234Z,100673.59
2022-12-16T13:18:42.617Z,100678.06
2022-12-16T13:21:56.271Z,100680.47
2022-12-16T13:24:41.982Z,100681.91
2022-12-16T13:27:32.185Z,100683.91
2022-12-16T13:30:38.729Z,100679.59
2022-12-16T13:33:25.621Z,100684.06
2022-12-16T13:36:16.685Z,100695.06
2022-12-16T13:39:08.011Z,100697.34
2022-12-16T13:41:53.279Z,100697.94
2022-12-16T13:45:00.511Z,100707.06
2022-12-16T13:48:01.346Z,100699.75
2022-12-16T13:51:01.846Z,100714.63
2022-12-16T13:53:50.633Z,100711.34
2022-12-16T13:56:44.615Z,100720.22
2022-12-16T13:59:37.205Z,100716.66
2022-12-16T14:02:39.174Z,100713.34
2022-12-16T14:05:36.615Z,100716.38
2022-12-16T14:08:23.276Z,100721.09
2022-12-16T14:11:17.482Z,100721.41
2022-12-16T14:14:11.439Z,100726.25
2022-12-16T14:17:09.559Z,100734.69
2022-12-16T14:20:19.725Z,100736.53
2022-12-16T14:23:55.488Z,100747.53
2022-12-16T14:26:34.506Z,100750.28
2022-12-16T14:29:20.990Z,100760.97
2022-12-16T14:32:07.626Z,100760.84
2022-12-16T14:34:55.328Z,100766.00
2022-12-16T14:37:47.430Z,100765.13
2022-12-16T14:40:40.269Z,100771.16
2022-12-16T14:43:34.416Z,100778.72
2022-12-16T14:46:19.983Z,100782.97
2022-12-16T14:49:06.812Z,100797.38
2022-12-16T14:51:52.978Z,100802.03
2022-12-16T14:54:44.219Z,100803.31
2022-12-16T14:57:33.052Z,100807.47
2022-12-16T15:00:27.702Z,100815.06
2022-12-16T15:03:18.724Z,100814.78
2022-12-16T15:06:04.727Z,100822.28
2022-12-16T15:08:52.433Z,100825.63
2022-12-16T15:11:41.175Z,100823.72
2022-12-16T15:14:31.943Z,100829.56
2022-12-16T15:17:17.766Z,100835.47
2022-12-16T15:20:09.113Z,100845.47
2022-12-16T15:23:11.123Z,100841.50
2022-12-16T15:26:02.117Z,100844.66
2022-12-16T15:28:54.812Z,100852.69
2022-12-16T15:31:44.230Z,100857.44
2022-12-16T15:34:38.593Z,100860.72
2022-12-16T15:37:40.548Z,100867.94
2022-12-16T15:40:48.235Z,100877.69
2022-12-16T15:43:49.118Z,100878.31
2022-12-16T15:46:50.652Z,100880.84
2022-12-16T15:49:51.959Z,100880.75
2022-12-16T15:53:03.472Z,100872.72
2022-12-16T15:55:59.479Z,100885.69
2022-12-16T15:58:54.958Z,100885.06
2022-12-16T16:01:45.735Z,100879.41
2022-12-16T16:04:49.235Z,100894.25
2022-12-16T16:07:40.067Z,100895.72
2022-12-16T16:10:37.745Z,100908.66
2022-12-16T16:13:23.637Z,100907.44
2022-12-16T16:16:10.043Z,100908.31
2022-12-16T16:18:56.040Z,100908.56
2022-12-16T16:21:41.785Z,100914.19
2022-12-16T16:24:27.084Z,100926.03
2022-12-16T16:27:13.239Z,100924.03
2022-12-16T16:29:58.456Z,100940.03
2022-12-16T16:32:43.750Z,100930.19
2022-12-16T16:35:28.973Z,100932.19
2022-12-16T16:38:18.356Z,100932.44
2022-12-16T16:41:04.719Z,100928.94
2022-12-16T16:43:49.814Z,100932.22
2022-12-16T16:46:49.766Z,100933.00
2022-12-16T16:49:58.218Z,100939.06
2022-12-16T16:52:44.440Z,100942.16
2022-12-16T16:55:42.107Z,100952.63
2022-12-16T16:58:53.842Z,100961.84
2022-12-16T17:01:39.435Z,100954.31
2022-12-16T17:04:24.863Z,100954.81
2022-12-16T17:07:10.182Z,100953.59
2022-12-16T17:09:56.136Z,100961.22
2022-12-16T17:12:44.216Z,100970.34
2022-12-16T17:15:36.511Z,100966.91
2022-12-16T17:18:22.750Z,100971.81
2022-12-16T17:21:07.883Z,100977.22
2022-12-16T17:23:53.178Z,100981.41
2022-12-16T17:26:38.746Z,100981.63
2022-12-16T17:29:24.609Z,100988.81
2022-12-16T17:32:09.974Z,101003.66
2022-12-16T17:34:54.889Z,101011.22
2022-12-16T17:37:40.022Z,101009.88
2022-12-16T17:40:25.885Z,101023.06
2022-12-16T17:43:11.289Z,101019.63
2022-12-16T17:45:56.904Z,101024.84
2022-12-16T17:48:45.586Z,101029.03
2022-12-16T17:51:30.958Z,101040.34
2022-12-16T17:54:23.921Z,101030.50
2022-12-16T17:57:11.237Z,101038.78
2022-12-16T17:59:56.307Z,101045.09
2022-12-16T18:02:41.614Z,101049.44
2022-12-16T18:05:32.670Z,101048.50
2022-12-16T18:08:22.007Z,101057.56
2022-12-16T18:11:11.322Z,101057.28
2022-12-16T18:13:56.613Z,101064.22
2022-12-16T18:16:49.534Z,101071.16
2022-12-16T18:19:35.782Z,101074.06
2022-12-16T18:22:21.602Z,101075.31
2022-12-16T18:25:06.895Z,101078.75
2022-12-16T18:27:54.601Z,101079.28
2022-12-16T18:30:39.741Z,101077.94
2022-12-16T18:33:25.203Z,101087.28
2022-12-16T18:36:10.572Z,101088.25
2022-12-16T18:38:55.833Z,101089.16
2022-12-16T18:41:41.808Z,101086.41
2022-12-16T18:44:30.096Z,101086.38
2022-12-16T18:47:15.248Z,101085.84
2022-12-16T18:50:19.130Z,101090.50
2022-12-16T18:53:07.558Z,101094.72
2022-12-16T18:55:52.903Z,101108.22
2022-12-16T18:58:53.583Z,101103.44
2022-12-16T19:01:38.978Z,101103.72
2022-12-16T19:04:24.219Z,101101.97
2022-12-16T19:07:09.598Z,101109.56
2022-12-16T19:09:55.008Z,101108.97
2022-12-16T19:12:40.233Z,101116.41
2022-12-16T19:15:25.528Z,101117.88
2022-12-16T19:18:11.301Z,101122.75
2022-12-16T19:20:56.879Z,101119.63
2022-12-16T19:23:41.901Z,101122.34
2022-12-16T19:26:27.657Z,101121.22
2022-12-16T19:29:12.921Z,101125.44
2022-12-16T19:31:58.337Z,101131.81
2022-12-16T19:34:43.673Z,101130.97
2022-12-16T19:37:28.906Z,101132.91
2022-12-16T19:40:14.738Z,101136.16
2022-12-16T19:42:59.790Z,101146.78
2022-12-16T19:45:45.098Z,101146.13
2022-12-16T19:48:30.272Z,101156.75
2022-12-16T19:51:17.593Z,101156.41
2022-12-16T19:54:03.896Z,101155.69
2022-12-16T19:56:50.629Z,101161.91
2022-12-16T19:59:38.410Z,101150.31
2022-12-16T20:02:25.426Z,101164.19
2022-12-16T20:05:10.507Z,101161.25
2022-12-16T20:07:56.341Z,101165.44
2022-12-16T20:10:41.894Z,101157.84
2022-12-16T20:13:30.218Z,101164.47
2022-12-16T20:16:20.452Z,101164.59
2022-12-16T20:19:05.825Z,101172.53
2022-12-16T20:21:54.743Z,101168.28
2022-12-16T20:24:42.085Z,101181.81
2022-12-16T20:27:27.880Z,101177.59
2022-12-16T20:30:13.246Z,101183.06
2022-12-16T20:32:59.050Z,101182.56
2022-12-16T20:35:44.205Z,101184.28
2022-12-16T20:38:29.394Z,101181.47
2022-12-16T20:41:34.268Z,101184.28
2022-12-16T20:44:19.530Z,101177.38
2022-12-16T20:47:04.728Z,101188.88
2022-12-16T20:49:49.963Z,101192.63
2022-12-16T20:52:35.239Z,101194.06
2022-12-16T20:55:20.503Z,101196.69
2022-12-16T20:58:05.886Z,101205.03
2022-12-16T21:00:51.063Z,101204.09
2022-12-16T21:03:36.972Z,101211.25
2022-12-16T21:06:23.209Z,101224.06
2022-12-16T21:09:08.425Z,101220.69
2022-12-16T21:11:56.240Z,101222.81
2022-12-16T21:14:41.669Z,101221.09
2022-12-16T21:17:26.877Z,101228.03
2022-12-16T21:20:12.160Z,101227.31
2022-12-16T21:22:57.405Z,101244.06
2022-12-16T21:25:42.688Z,101245.50
2022-12-16T21:28:30.466Z,101239.63
2022-12-16T21:31:19.284Z,101240.09
2022-12-16T21:34:04.490Z,101251.50
2022-12-16T21:36:49.725Z,101253.41
2022-12-16T21:39:35.248Z,101255.19
2022-12-16T21:42:20.437Z,101255.59
2022-12-16T21:45:05.726Z,101256.81
2022-12-16T21:47:50.802Z,101260.50
2022-12-16T21:50:36.870Z,101271.34
2022-12-16T21:53:22.181Z,101281.69
2022-12-16T21:56:14.839Z,101276.00
2022-12-16T21:59:03.213Z,101277.53
2022-12-16T22:01:48.307Z,101280.88
2022-12-16T22:04:33.710Z,101284.75
2022-12-16T22:07:19.131Z,101287.53
2022-12-16T22:10:04.964Z,101290.03
2022-12-16T22:12:52.470Z,101293.53
2022-12-16T22:15:38.184Z,101286.72
2022-12-16T22:18:23.436Z,101294.25
2022-12-16T22:21:19.998Z,101295.91
2022-12-16T22:24:05.229Z,101285.44
2022-12-16T22:26:50.353Z,101281.25
2022-12-16T22:29:35.752Z,101301.66
2022-12-16T22:32:21.329Z,101309.66
2022-12-16T22:35:06.506Z,101309.38
2022-12-16T22:37:51.815Z,101315.25
2022-12-16T22:40:37.004Z,101313.16
2022-12-16T22:43:23.052Z,101313.97
2022-12-16T22:46:17.445Z,101315.66
2022-12-16T22:49:05.178Z,101318.53
2022-12-16T22:51:50.917Z,101316.69
2022-12-16T22:54:35.985Z,101333.53
2022-12-16T22:57:21.298Z,101318.59
2022-12-16T23:00:06.519Z,101323.41
2022-12-16T23:02:51.749Z,101329.22
2022-12-16T23:05:36.862Z,101334.28
2022-12-16T23:08:22.155Z,101332.56
2022-12-16T23:11:14.503Z,101327.56
2022-12-16T23:13:59.795Z,101337.41
2022-12-16T23:16:45.026Z,101328.22
2022-12-16T23:19:30.244Z,101335.25
2022-12-16T23:22:15.273Z,101333.13
2022-12-16T23:25:00.564Z,101334.25
2022-12-16T23:27:45.542Z,101336.28
2022-12-16T23:30:31.381Z,101325.72
2022-12-16T23:33:20.889Z,101330.66
2022-12-16T23:36:06.120Z,101342.22
2022-12-16T23:38:51.571Z,101351.09
2022-12-16T23:41:39.126Z,101347.63
2022-12-16T23:44:24.225Z,101353.41
2022-12-16T23:47:09.824Z,101354.63
2022-12-16T23:49:56.463Z,101361.03
2022-12-16T23:52:41.891Z,101355.19
2022-12-16T23:55:26.975Z,101357.50
2022-12-16T23:58:20.336Z,101358.78
